Oshawa, Canada
Current Conditions -  °F | °C
As of 11:00 PM on Wednesday 26 Nov 2014 (Local Time) from CYOO Reporting Station
Overcast Overcast  
Wind Chill: 23°   Ceiling: 3800
Heat Index: 30°   Visibility: 9mi
Dew Point: 21°   Wind: 8mph
Humidity: 69%   Direction: 30°NNE
Pressure: 30.08"   Gusts: NA
Location:  43.89°N, 78.86°W
Report Text: CYOO 270400Z AUTO 03007KT 9SM OVC038 M01/M06 A3008 RMK SLP191
Loading
Personal Weather Stations






























Interactive Weather Map New forecast layout! Learn more

10-Day Weather Forecast

Advertisements
Track Severe Weather on mobile